createdAt,value
2022-10-23T00:00:50.618Z,1012.42
2022-10-23T00:01:50.527Z,1012.35
2022-10-23T00:02:50.556Z,1012.41
2022-10-23T00:03:50.501Z,1012.38
2022-10-23T00:04:50.518Z,1012.37
2022-10-23T00:05:50.479Z,1012.34
2022-10-23T00:06:50.484Z,1012.28
2022-10-23T00:07:50.444Z,1012.30
2022-10-23T00:08:50.428Z,1012.30
2022-10-23T00:09:50.416Z,1012.33
2022-10-23T00:10:51.119Z,1012.29
2022-10-23T00:11:50.380Z,1012.31
2022-10-23T00:12:50.400Z,1012.30
2022-10-23T00:13:50.370Z,1012.34
2022-10-23T00:14:50.352Z,1012.36
2022-10-23T00:16:50.334Z,1012.33
2022-10-23T00:17:50.323Z,1012.37
2022-10-23T00:18:50.340Z,1012.34
2022-10-23T00:19:50.295Z,1012.30
2022-10-23T00:20:51.233Z,1012.37
2022-10-23T00:21:50.266Z,1012.34
2022-10-23T00:22:50.253Z,1012.36
2022-10-23T00:23:50.244Z,1012.40
2022-10-23T00:24:50.248Z,1012.35
2022-10-23T00:25:50.205Z,1012.37
2022-10-23T00:26:50.204Z,1012.34
2022-10-23T00:27:50.186Z,1012.33
2022-10-23T00:28:50.180Z,1012.35
2022-10-23T00:29:50.155Z,1012.30
2022-10-23T00:30:50.175Z,1012.30
2022-10-23T00:31:50.139Z,1012.32
2022-10-23T00:32:50.128Z,1012.30
2022-10-23T00:33:50.119Z,1012.28
2022-10-23T00:34:50.096Z,1012.27
2022-10-23T00:35:50.083Z,1012.30
2022-10-23T00:36:50.918Z,1012.31
2022-10-23T00:37:50.066Z,1012.32
2022-10-23T00:38:50.060Z,1012.30
2022-10-23T00:39:50.030Z,1012.28
2022-10-23T00:41:50.031Z,1012.42
2022-10-23T00:42:50.006Z,1012.39
2022-10-23T00:43:49.981Z,1012.37
2022-10-23T00:44:49.972Z,1012.35
2022-10-23T00:45:49.954Z,1012.33
2022-10-23T00:46:49.960Z,1012.34
2022-10-23T00:47:50.040Z,1012.27
2022-10-23T00:48:49.924Z,1012.27
2022-10-23T00:49:49.905Z,1012.27
2022-10-23T00:50:50.232Z,1012.23
2022-10-23T00:51:49.884Z,1012.24
2022-10-23T00:52:49.871Z,1012.24
2022-10-23T00:54:00.967Z,1012.23
2022-10-23T00:54:50.843Z,1012.29
2022-10-23T00:55:49.833Z,1012.23
2022-10-23T00:56:50.305Z,1012.20
2022-10-23T00:57:49.803Z,1012.15
2022-10-23T00:58:49.796Z,1012.16
2022-10-23T00:59:50.351Z,1012.21
2022-10-23T01:00:50.734Z,1012.14
2022-10-23T01:01:49.872Z,1012.19
2022-10-23T01:02:49.748Z,1012.23
2022-10-23T01:03:49.726Z,1012.24
2022-10-23T01:04:49.719Z,1012.31
2022-10-23T01:05:49.741Z,1012.38
2022-10-23T01:06:49.688Z,1012.34
2022-10-23T01:07:49.688Z,1012.37
2022-10-23T01:08:49.667Z,1012.36
2022-10-23T01:09:49.649Z,1012.39
2022-10-23T01:10:49.646Z,1012.38
2022-10-23T01:11:49.651Z,1012.45
2022-10-23T01:12:49.609Z,1012.43
2022-10-23T01:13:49.594Z,1012.41
2022-10-23T01:14:49.622Z,1012.51
2022-10-23T01:15:49.572Z,1012.49
2022-10-23T01:16:49.650Z,1012.47
2022-10-23T01:17:50.045Z,1012.50
2022-10-23T01:18:49.532Z,1012.44
2022-10-23T01:19:49.513Z,1012.45
2022-10-23T01:20:49.512Z,1012.44
2022-10-23T01:21:49.489Z,1012.39
2022-10-23T01:22:49.494Z,1012.38
2022-10-23T01:23:49.578Z,1012.29
2022-10-23T01:24:49.454Z,1012.32
2022-10-23T01:25:49.434Z,1012.26
2022-10-23T01:26:49.423Z,1012.30
2022-10-23T01:27:49.417Z,1012.30
2022-10-23T01:28:49.402Z,1012.26
2022-10-23T01:29:49.416Z,1012.24
2022-10-23T01:30:49.374Z,1012.24
2022-10-23T01:31:49.365Z,1012.31
2022-10-23T01:32:49.345Z,1012.27
2022-10-23T01:33:49.335Z,1012.23
2022-10-23T01:34:49.324Z,1012.26
2022-10-23T01:35:49.415Z,1012.16
2022-10-23T01:36:49.294Z,1012.15
2022-10-23T01:37:49.297Z,1012.20
2022-10-23T01:38:49.325Z,1012.14
2022-10-23T01:39:49.266Z,1012.17
2022-10-23T01:40:49.250Z,1012.22
2022-10-23T01:41:49.387Z,1012.12
2022-10-23T01:42:49.236Z,1012.15
2022-10-23T01:43:49.204Z,1012.14
2022-10-23T01:44:49.192Z,1012.20
2022-10-23T01:45:49.174Z,1012.17
2022-10-23T01:46:49.167Z,1012.20
2022-10-23T01:47:49.163Z,1012.15
2022-10-23T01:48:49.143Z,1012.08
2022-10-23T01:49:49.123Z,1012.15
2022-10-23T01:50:49.113Z,1012.09
2022-10-23T01:51:49.102Z,1012.05
2022-10-23T01:52:49.126Z,1012.10
2022-10-23T01:53:49.093Z,1012.09
2022-10-23T01:54:49.055Z,1012.13
2022-10-23T01:55:49.058Z,1012.15
2022-10-23T01:56:49.053Z,1012.13
2022-10-23T01:57:49.025Z,1012.16
2022-10-23T01:58:49.008Z,1012.17
2022-10-23T01:59:49.425Z,1012.14
2022-10-23T02:00:49.428Z,1012.06
2022-10-23T02:01:49.067Z,1012.12
2022-10-23T02:02:48.959Z,1012.13
2022-10-23T02:03:49.057Z,1012.14
2022-10-23T02:04:48.927Z,1012.11
2022-10-23T02:05:49.017Z,1012.08
2022-10-23T02:06:48.907Z,1012.09
2022-10-23T02:07:48.898Z,1012.05
2022-10-23T02:08:48.997Z,1011.99
2022-10-23T02:09:48.868Z,1011.96
2022-10-23T02:10:48.873Z,1012.02
2022-10-23T02:11:48.859Z,1011.93
2022-10-23T02:12:48.828Z,1011.94
2022-10-23T02:13:48.811Z,1011.93
2022-10-23T02:14:48.813Z,1011.92
2022-10-23T02:15:48.790Z,1011.86
2022-10-23T02:16:48.775Z,1011.81
2022-10-23T02:17:48.785Z,1011.89
2022-10-23T02:18:48.752Z,1011.84
2022-10-23T02:19:48.735Z,1011.91
2022-10-23T02:20:48.737Z,1011.85
2022-10-23T02:21:48.866Z,1011.94
2022-10-23T02:22:48.695Z,1011.90
2022-10-23T02:23:51.400Z,1011.82
2022-10-23T02:24:49.662Z,1011.81
2022-10-23T02:25:48.655Z,1011.77
2022-10-23T02:26:48.646Z,1011.86
2022-10-23T02:27:48.642Z,1011.88
2022-10-23T02:28:48.627Z,1011.86
2022-10-23T02:29:48.627Z,1011.79
2022-10-23T02:30:48.585Z,1011.81
2022-10-23T02:31:48.585Z,1011.76
2022-10-23T02:32:48.558Z,1011.76
2022-10-23T02:33:48.553Z,1011.76
2022-10-23T02:34:48.538Z,1011.77
2022-10-23T02:35:48.546Z,1011.73
2022-10-23T02:36:48.517Z,1011.69
2022-10-23T02:37:48.569Z,1011.66
2022-10-23T02:38:48.535Z,1011.61
2022-10-23T02:39:48.469Z,1011.68
2022-10-23T02:40:48.460Z,1011.62
2022-10-23T02:41:48.566Z,1011.64
2022-10-23T02:42:48.428Z,1011.63
2022-10-23T02:43:48.692Z,1011.60
2022-10-23T02:44:48.414Z,1011.60
2022-10-23T02:45:48.402Z,1011.52
2022-10-23T02:46:48.378Z,1011.53
2022-10-23T02:47:48.392Z,1011.58
2022-10-23T02:48:48.361Z,1011.50
2022-10-23T02:49:48.341Z,1011.49
2022-10-23T02:50:48.328Z,1011.43
2022-10-23T02:51:48.322Z,1011.41
2022-10-23T02:52:48.312Z,1011.41
2022-10-23T02:53:48.421Z,1011.40
2022-10-23T02:54:48.285Z,1011.40
2022-10-23T02:55:48.270Z,1011.38
2022-10-23T02:56:48.243Z,1011.29
2022-10-23T02:57:48.235Z,1011.34
2022-10-23T02:58:48.213Z,1011.38
2022-10-23T02:59:48.234Z,1011.33
2022-10-23T03:00:48.216Z,1011.32
2022-10-23T03:01:48.268Z,1011.28
2022-10-23T03:02:48.172Z,1011.25
2022-10-23T03:03:48.157Z,1011.20
2022-10-23T03:04:48.147Z,1011.22
2022-10-23T03:05:48.155Z,1011.27
2022-10-23T03:06:48.115Z,1011.26
2022-10-23T03:07:48.115Z,1011.27
2022-10-23T03:08:48.095Z,1011.28
2022-10-23T03:09:48.096Z,1011.22
2022-10-23T03:11:48.093Z,1011.23
2022-10-23T03:12:48.044Z,1011.19
2022-10-23T03:13:48.038Z,1011.21
2022-10-23T03:14:48.019Z,1011.23
2022-10-23T03:15:47.998Z,1011.32
2022-10-23T03:16:47.994Z,1011.21
2022-10-23T03:17:48.099Z,1011.18
2022-10-23T03:18:47.962Z,1011.21
2022-10-23T03:19:47.950Z,1011.18
2022-10-23T03:20:47.929Z,1011.23
2022-10-23T03:21:47.921Z,1011.18
2022-10-23T03:22:48.257Z,1011.24
2022-10-23T03:23:48.001Z,1011.23
2022-10-23T03:24:47.880Z,1011.23
2022-10-23T03:25:47.881Z,1011.19
2022-10-23T03:26:47.852Z,1011.23
2022-10-23T03:27:47.841Z,1011.20
2022-10-23T03:28:47.835Z,1011.22
2022-10-23T03:29:47.870Z,1011.21
2022-10-23T03:30:47.822Z,1011.21
2022-10-23T03:31:48.752Z,1011.24
2022-10-23T03:32:47.785Z,1011.32
2022-10-23T03:33:47.763Z,1011.27
2022-10-23T03:34:47.759Z,1011.27
2022-10-23T03:36:47.727Z,1011.27
2022-10-23T03:37:47.727Z,1011.24
2022-10-23T03:38:47.703Z,1011.26
2022-10-23T03:39:47.687Z,1011.24
2022-10-23T03:40:47.672Z,1011.28
2022-10-23T03:41:47.719Z,1011.27
2022-10-23T03:42:47.647Z,1011.29
2022-10-23T03:43:47.668Z,1011.27
2022-10-23T03:44:47.897Z,1011.27
2022-10-23T03:45:47.609Z,1011.28
2022-10-23T03:46:47.616Z,1011.25
2022-10-23T03:47:47.617Z,1011.18
2022-10-23T03:48:47.581Z,1011.18
2022-10-23T03:49:47.567Z,1011.17
2022-10-23T03:50:47.570Z,1011.11
2022-10-23T03:51:47.535Z,1011.19
2022-10-23T03:52:47.580Z,1011.16
2022-10-23T03:53:47.623Z,1011.13
2022-10-23T03:54:47.554Z,1011.19
2022-10-23T03:55:47.479Z,1011.16
2022-10-23T03:56:47.465Z,1011.17
2022-10-23T03:57:47.452Z,1011.26
2022-10-23T03:58:47.446Z,1011.18
2022-10-23T03:59:47.464Z,1011.11
2022-10-23T04:00:47.446Z,1011.13
2022-10-23T04:01:47.555Z,1011.12
2022-10-23T04:02:47.848Z,1011.07
2022-10-23T04:03:47.393Z,1011.11
2022-10-23T04:04:47.376Z,1011.13
2022-10-23T04:05:49.982Z,1011.09
2022-10-23T04:06:47.357Z,1011.11
2022-10-23T04:07:47.326Z,1011.02
2022-10-23T04:08:47.305Z,1011.05
2022-10-23T04:09:47.301Z,1011.03
2022-10-23T04:10:47.291Z,1010.99
2022-10-23T04:11:47.287Z,1010.99
2022-10-23T04:12:47.253Z,1010.98
2022-10-23T04:13:47.237Z,1010.95
2022-10-23T04:14:47.228Z,1010.95
2022-10-23T04:15:47.358Z,1010.90
2022-10-23T04:16:47.207Z,1010.84
2022-10-23T04:17:47.297Z,1010.89
2022-10-23T04:18:47.179Z,1010.86
2022-10-23T04:19:47.179Z,1010.95
2022-10-23T04:20:47.148Z,1010.93
2022-10-23T04:21:47.157Z,1010.91
2022-10-23T04:22:47.142Z,1010.85
2022-10-23T04:23:47.168Z,1010.86
2022-10-23T04:24:47.099Z,1010.85
2022-10-23T04:26:47.068Z,1010.89
2022-10-23T04:27:47.068Z,1010.93
2022-10-23T04:28:47.053Z,1010.90
2022-10-23T04:29:47.168Z,1010.95
2022-10-23T04:30:47.021Z,1010.91
2022-10-23T04:31:47.017Z,1010.94
2022-10-23T04:32:46.993Z,1010.87
2022-10-23T04:33:46.972Z,1010.82
2022-10-23T04:34:46.977Z,1010.83
2022-10-23T04:35:46.984Z,1010.85
2022-10-23T04:36:46.943Z,1010.82
2022-10-23T04:37:46.923Z,1010.78
2022-10-23T04:38:46.929Z,1010.79
2022-10-23T04:39:46.932Z,1010.76
2022-10-23T04:40:46.916Z,1010.76
2022-10-23T04:41:46.894Z,1010.79
2022-10-23T04:42:46.855Z,1010.79
2022-10-23T04:43:46.854Z,1010.74
2022-10-23T04:44:46.836Z,1010.80
2022-10-23T04:45:46.828Z,1010.76
2022-10-23T04:46:47.048Z,1010.78
2022-10-23T04:47:46.830Z,1010.78
2022-10-23T04:48:46.779Z,1010.81
2022-10-23T04:49:46.788Z,1010.76
2022-10-23T04:51:46.750Z,1010.79
2022-10-23T04:52:46.731Z,1010.85
2022-10-23T04:53:46.746Z,1010.79
2022-10-23T04:54:46.698Z,1010.87
2022-10-23T04:55:46.699Z,1010.89
2022-10-23T04:56:46.680Z,1010.86
2022-10-23T04:57:46.661Z,1010.91
2022-10-23T04:58:46.652Z,1010.83
2022-10-23T04:59:46.768Z,1010.83
2022-10-23T05:00:46.685Z,1010.76
2022-10-23T05:01:46.767Z,1010.79
2022-10-23T05:02:46.600Z,1010.77
2022-10-23T05:03:46.590Z,1010.73
2022-10-23T05:04:46.579Z,1010.66
2022-10-23T05:05:46.627Z,1010.73
2022-10-23T05:06:46.552Z,1010.70
2022-10-23T05:07:46.594Z,1010.61
2022-10-23T05:08:46.530Z,1010.63
2022-10-23T05:09:46.583Z,1010.59
2022-10-23T05:10:46.493Z,1010.49
2022-10-23T05:11:46.591Z,1010.49
2022-10-23T05:12:46.481Z,1010.52
2022-10-23T05:13:46.477Z,1010.42
2022-10-23T05:14:46.465Z,1010.48
2022-10-23T05:15:46.444Z,1010.52
2022-10-23T05:16:46.413Z,1010.45
2022-10-23T05:17:46.453Z,1010.41
2022-10-23T05:18:46.385Z,1010.48
2022-10-23T05:19:46.375Z,1010.43
2022-10-23T05:20:46.376Z,1010.36
2022-10-23T05:21:46.350Z,1010.39
2022-10-23T05:22:46.335Z,1010.33
2022-10-23T05:23:46.492Z,1010.41
2022-10-23T05:24:49.685Z,1010.42
2022-10-23T05:25:46.539Z,1010.36
2022-10-23T05:26:46.278Z,1010.36
2022-10-23T05:27:46.266Z,1010.37
2022-10-23T05:28:46.289Z,1010.38
2022-10-23T05:29:46.288Z,1010.39
2022-10-23T05:30:46.246Z,1010.31
2022-10-23T05:31:46.221Z,1010.34
2022-10-23T05:32:46.434Z,1010.33
2022-10-23T05:33:46.196Z,1010.35
2022-10-23T05:34:46.171Z,1010.28
2022-10-23T05:35:46.206Z,1010.31
2022-10-23T05:36:46.171Z,1010.30
2022-10-23T05:37:46.142Z,1010.29
2022-10-23T05:38:46.129Z,1010.22
2022-10-23T05:39:46.121Z,1010.30
2022-10-23T05:40:46.104Z,1010.26
2022-10-23T05:41:46.205Z,1010.17
2022-10-23T05:42:46.467Z,1010.24
2022-10-23T05:43:46.064Z,1010.27
2022-10-23T05:44:46.065Z,1010.24
2022-10-23T05:45:46.034Z,1010.22
2022-10-23T05:46:46.036Z,1010.23
2022-10-23T05:47:46.139Z,1010.22
2022-10-23T05:48:46.036Z,1010.25
2022-10-23T05:49:45.995Z,1010.20
2022-10-23T05:50:45.965Z,1010.18
2022-10-23T05:51:45.984Z,1010.18
2022-10-23T05:52:46.031Z,1010.15
2022-10-23T05:53:45.964Z,1010.22
2022-10-23T05:54:45.949Z,1010.28
2022-10-23T05:55:45.902Z,1010.19
2022-10-23T05:56:45.892Z,1010.18
2022-10-23T05:57:46.139Z,1010.20
2022-10-23T05:58:45.869Z,1010.20
2022-10-23T05:59:45.978Z,1010.18
2022-10-23T06:00:45.847Z,1010.12
2022-10-23T06:01:45.901Z,1010.12
2022-10-23T06:02:45.810Z,1010.08
2022-10-23T06:03:45.817Z,1010.03
2022-10-23T06:04:45.789Z,1010.07
2022-10-23T06:05:45.906Z,1010.02
2022-10-23T06:06:45.759Z,1010.07
2022-10-23T06:07:45.861Z,1010.09
2022-10-23T06:08:45.735Z,1010.07
2022-10-23T06:09:45.734Z,1010.03
2022-10-23T06:10:45.757Z,1010.04
2022-10-23T06:11:45.816Z,1010.06
2022-10-23T06:12:46.662Z,1009.99
2022-10-23T06:13:45.717Z,1009.96
2022-10-23T06:14:45.655Z,1009.92
2022-10-23T06:15:45.653Z,1009.98
2022-10-23T06:16:45.634Z,1009.89
2022-10-23T06:17:45.916Z,1009.97
2022-10-23T06:18:45.594Z,1009.99
2022-10-23T06:19:45.605Z,1009.99
2022-10-23T06:20:45.575Z,1010.02
2022-10-23T06:21:45.567Z,1010.05
2022-10-23T06:22:45.850Z,1010.06
2022-10-23T06:23:45.693Z,1010.07
2022-10-23T06:24:45.533Z,1010.03
2022-10-23T06:25:45.532Z,1010.02
2022-10-23T06:26:45.497Z,1010.01
2022-10-23T06:27:45.490Z,1010.03
2022-10-23T06:28:45.474Z,1009.96
2022-10-23T06:29:45.519Z,1010.04
2022-10-23T06:30:45.449Z,1010.01
2022-10-23T06:31:45.454Z,1010.06
2022-10-23T06:32:45.662Z,1010.12
2022-10-23T06:33:45.410Z,1010.09
2022-10-23T06:34:45.389Z,1010.12
2022-10-23T06:35:45.404Z,1010.10
2022-10-23T06:36:45.371Z,1010.06
2022-10-23T06:37:45.353Z,1010.03
2022-10-23T06:38:45.331Z,1010.07
2022-10-23T06:39:45.342Z,1010.06
2022-10-23T06:40:45.312Z,1009.92
2022-10-23T06:41:45.417Z,1009.97
2022-10-23T06:42:45.497Z,1009.95
2022-10-23T06:43:45.283Z,1009.94
2022-10-23T06:44:45.267Z,1009.88
2022-10-23T06:45:45.251Z,1009.97
2022-10-23T06:46:45.245Z,1009.99
2022-10-23T06:47:45.662Z,1010.03
2022-10-23T06:48:45.217Z,1009.98
2022-10-23T06:49:45.213Z,1010.04
2022-10-23T06:50:45.186Z,1009.98
2022-10-23T06:51:45.179Z,1009.98
2022-10-23T06:52:47.677Z,1009.93
2022-10-23T06:53:45.174Z,1009.97
2022-10-23T06:54:45.185Z,1010.01
2022-10-23T06:55:45.150Z,1010.01
2022-10-23T06:56:45.106Z,1010.05
2022-10-23T06:57:45.398Z,1010.10
2022-10-23T06:58:45.101Z,1010.04
2022-10-23T06:59:45.109Z,1009.96
2022-10-23T07:00:45.129Z,1009.93
2022-10-23T07:01:45.228Z,1009.85
2022-10-23T07:02:45.127Z,1009.79
2022-10-23T07:03:45.051Z,1009.75
2022-10-23T07:04:45.020Z,1009.80
2022-10-23T07:05:45.103Z,1009.74
2022-10-23T07:06:44.990Z,1009.74
2022-10-23T07:07:44.970Z,1009.80
2022-10-23T07:08:44.951Z,1009.80
2022-10-23T07:09:44.961Z,1009.80
2022-10-23T07:10:44.960Z,1009.79
2022-10-23T07:11:45.056Z,1009.85
2022-10-23T07:12:45.250Z,1009.88
2022-10-23T07:13:44.900Z,1009.92
2022-10-23T07:14:44.893Z,1009.95
2022-10-23T07:15:44.890Z,1009.99
2022-10-23T07:16:44.886Z,1010.00
2022-10-23T07:17:44.875Z,1009.96
2022-10-23T07:18:44.844Z,1009.92
2022-10-23T07:19:44.815Z,1009.84
2022-10-23T07:20:44.816Z,1009.86
2022-10-23T07:21:44.836Z,1009.84
2022-10-23T07:22:45.155Z,1009.83
2022-10-23T07:23:44.881Z,1009.86
2022-10-23T07:24:44.754Z,1009.85
2022-10-23T07:25:44.746Z,1009.84
2022-10-23T07:26:44.819Z,1009.85
2022-10-23T07:27:45.040Z,1009.79
2022-10-23T07:28:44.705Z,1009.79
2022-10-23T07:29:44.711Z,1009.82
2022-10-23T07:30:45.636Z,1009.84
2022-10-23T07:31:44.664Z,1009.80
2022-10-23T07:32:44.657Z,1009.82
2022-10-23T07:33:44.629Z,1009.76
2022-10-23T07:34:44.631Z,1009.73
2022-10-23T07:35:44.642Z,1009.67
2022-10-23T07:36:44.602Z,1009.68
2022-10-23T07:37:44.971Z,1009.65
2022-10-23T07:38:44.571Z,1009.64
2022-10-23T07:39:44.561Z,1009.63
2022-10-23T07:40:44.553Z,1009.63
2022-10-23T07:41:44.642Z,1009.65
2022-10-23T07:42:44.521Z,1009.69
2022-10-23T07:43:44.502Z,1009.69
2022-10-23T07:44:44.504Z,1009.74
2022-10-23T07:45:44.482Z,1009.75
2022-10-23T07:46:44.473Z,1009.75
2022-10-23T07:47:44.794Z,1009.70
2022-10-23T07:48:44.459Z,1009.70
2022-10-23T07:49:44.446Z,1009.71
2022-10-23T07:50:45.401Z,1009.76
2022-10-23T07:51:48.954Z,1009.82
2022-10-23T07:52:45.719Z,1009.77
2022-10-23T07:53:44.406Z,1009.74
2022-10-23T07:54:44.376Z,1009.73
2022-10-23T07:55:44.375Z,1009.74
2022-10-23T07:56:44.344Z,1009.71
2022-10-23T07:57:44.331Z,1009.75
2022-10-23T07:58:44.375Z,1009.73
2022-10-23T07:59:44.323Z,1009.74
2022-10-23T08:00:44.308Z,1009.75
2022-10-23T08:01:44.416Z,1009.72
2022-10-23T08:02:44.457Z,1009.70
2022-10-23T08:03:44.253Z,1009.66
2022-10-23T08:04:44.319Z,1009.67
2022-10-23T08:05:44.219Z,1009.73
2022-10-23T08:06:44.226Z,1009.66
2022-10-23T08:07:45.030Z,1009.68
2022-10-23T08:09:44.171Z,1009.58
2022-10-23T08:10:44.271Z,1009.55
2022-10-23T08:11:44.155Z,1009.57
2022-10-23T08:12:44.343Z,1009.55
2022-10-23T08:13:44.133Z,1009.55
2022-10-23T08:14:44.133Z,1009.53
2022-10-23T08:15:44.123Z,1009.52
2022-10-23T08:16:44.212Z,1009.59
2022-10-23T08:17:44.308Z,1009.54
2022-10-23T08:18:44.074Z,1009.59
2022-10-23T08:19:44.044Z,1009.58
2022-10-23T08:20:44.050Z,1009.56
2022-10-23T08:21:44.023Z,1009.56
2022-10-23T08:22:44.045Z,1009.58
2022-10-23T08:23:44.007Z,1009.56
2022-10-23T08:24:44.025Z,1009.65
2022-10-23T08:25:43.977Z,1009.54
2022-10-23T08:26:43.989Z,1009.58
2022-10-23T08:27:44.202Z,1009.55
2022-10-23T08:28:43.962Z,1009.58
2022-10-23T08:29:43.908Z,1009.57
2022-10-23T08:30:43.917Z,1009.55
2022-10-23T08:31:43.887Z,1009.49
2022-10-23T08:32:43.879Z,1009.52
2022-10-23T08:33:43.904Z,1009.44
2022-10-23T08:34:43.970Z,1009.45
2022-10-23T08:35:43.840Z,1009.44
2022-10-23T08:36:43.833Z,1009.41
2022-10-23T08:37:44.149Z,1009.36
2022-10-23T08:38:43.816Z,1009.34
2022-10-23T08:39:43.803Z,1009.39
2022-10-23T08:40:43.802Z,1009.33
2022-10-23T08:41:43.764Z,1009.30
2022-10-23T08:42:45.068Z,1009.32
2022-10-23T08:43:43.763Z,1009.34
2022-10-23T08:44:43.726Z,1009.40
2022-10-23T08:45:43.713Z,1009.37
2022-10-23T08:46:43.813Z,1009.34
2022-10-23T08:47:43.702Z,1009.34
2022-10-23T08:48:43.674Z,1009.40
2022-10-23T08:49:43.684Z,1009.30
2022-10-23T08:50:43.654Z,1009.33
2022-10-23T08:51:43.634Z,1009.29
2022-10-23T08:52:44.058Z,1009.27
2022-10-23T08:53:43.640Z,1009.30
2022-10-23T08:54:43.863Z,1009.27
2022-10-23T08:55:43.576Z,1009.29
2022-10-23T08:56:43.566Z,1009.17
2022-10-23T08:57:43.741Z,1009.15
2022-10-23T08:58:43.611Z,1009.16
2022-10-23T08:59:43.557Z,1009.18
2022-10-23T09:00:43.620Z,1009.12
2022-10-23T09:01:43.606Z,1009.10
2022-10-23T09:02:43.740Z,1009.13
2022-10-23T09:03:43.479Z,1009.08
2022-10-23T09:04:43.850Z,1009.02
2022-10-23T09:05:43.451Z,1009.03
2022-10-23T09:06:43.472Z,1009.04
2022-10-23T09:07:43.556Z,1009.06
2022-10-23T09:08:43.421Z,1009.08
2022-10-23T09:09:43.431Z,1009.07
2022-10-23T09:10:44.516Z,1009.00
2022-10-23T09:11:43.385Z,1009.03
2022-10-23T09:12:44.321Z,1008.96
2022-10-23T09:13:43.864Z,1009.00
2022-10-23T09:14:43.332Z,1008.95
2022-10-23T09:15:43.331Z,1008.94
2022-10-23T09:16:43.344Z,1008.92
2022-10-23T09:17:43.514Z,1008.87
2022-10-23T09:18:43.293Z,1008.90
2022-10-23T09:19:43.274Z,1008.84
2022-10-23T09:20:43.266Z,1008.86
2022-10-23T09:21:43.257Z,1008.75
2022-10-23T09:22:43.266Z,1008.79
2022-10-23T09:23:44.037Z,1008.79
2022-10-23T09:24:43.226Z,1008.78
2022-10-23T09:25:43.196Z,1008.81
2022-10-23T09:26:43.187Z,1008.79
2022-10-23T09:27:43.511Z,1008.76
2022-10-23T09:28:43.269Z,1008.75
2022-10-23T09:29:43.140Z,1008.78
2022-10-23T09:30:43.163Z,1008.76
2022-10-23T09:31:43.166Z,1008.66
2022-10-23T09:32:43.108Z,1008.69
2022-10-23T09:33:43.099Z,1008.75
2022-10-23T09:34:43.124Z,1008.66
2022-10-23T09:35:43.063Z,1008.69
2022-10-23T09:36:43.119Z,1008.66
2022-10-23T09:37:43.267Z,1008.63
2022-10-23T09:38:43.031Z,1008.58
2022-10-23T09:39:43.023Z,1008.62
2022-10-23T09:40:43.033Z,1008.60
2022-10-23T09:41:42.994Z,1008.58
2022-10-23T09:42:43.015Z,1008.58
2022-10-23T09:43:42.955Z,1008.60
2022-10-23T09:44:42.957Z,1008.61
2022-10-23T09:45:43.213Z,1008.62
2022-10-23T09:46:43.028Z,1008.58
2022-10-23T09:47:43.175Z,1008.65
2022-10-23T09:48:42.995Z,1008.59
2022-10-23T09:49:42.899Z,1008.59
2022-10-23T09:50:42.888Z,1008.56
2022-10-23T09:51:42.866Z,1008.56
2022-10-23T09:52:42.876Z,1008.58
2022-10-23T09:53:42.837Z,1008.56
2022-10-23T09:54:42.817Z,1008.45
2022-10-23T09:55:42.811Z,1008.41
2022-10-23T09:56:42.829Z,1008.43
2022-10-23T09:57:43.303Z,1008.39
2022-10-23T09:58:42.792Z,1008.38
2022-10-23T09:59:42.778Z,1008.37
2022-10-23T10:00:43.017Z,1008.39
2022-10-23T10:01:42.816Z,1008.40
2022-10-23T10:02:42.720Z,1008.35
2022-10-23T10:03:42.701Z,1008.40
2022-10-23T10:04:42.741Z,1008.39
2022-10-23T10:05:42.691Z,1008.39
2022-10-23T10:06:42.708Z,1008.36
2022-10-23T10:07:42.864Z,1008.36
2022-10-23T10:08:42.657Z,1008.36
2022-10-23T10:09:42.634Z,1008.36
2022-10-23T10:10:42.644Z,1008.34
2022-10-23T10:11:42.593Z,1008.36
2022-10-23T10:12:42.604Z,1008.33
2022-10-23T10:13:42.586Z,1008.35
2022-10-23T10:14:42.596Z,1008.38
2022-10-23T10:15:42.546Z,1008.39
2022-10-23T10:16:42.648Z,1008.44
2022-10-23T10:17:42.817Z,1008.42
2022-10-23T10:18:42.507Z,1008.35
2022-10-23T10:19:42.507Z,1008.31
2022-10-23T10:20:42.489Z,1008.27
2022-10-23T10:21:42.485Z,1008.28
2022-10-23T10:22:42.579Z,1008.29
2022-10-23T10:23:42.456Z,1008.30
2022-10-23T10:24:42.429Z,1008.28
2022-10-23T10:25:43.373Z,1008.23
2022-10-23T10:26:42.408Z,1008.25
2022-10-23T10:27:42.766Z,1008.22
2022-10-23T10:28:42.488Z,1008.21
2022-10-23T10:29:42.374Z,1008.14
2022-10-23T10:30:42.367Z,1008.13
2022-10-23T10:31:42.342Z,1008.07
2022-10-23T10:32:42.350Z,1008.07
2022-10-23T10:33:42.311Z,1008.06
2022-10-23T10:34:42.332Z,1008.01
2022-10-23T10:35:42.295Z,1008.02
2022-10-23T10:36:42.607Z,1008.00
2022-10-23T10:37:43.893Z,1007.95
2022-10-23T10:38:42.254Z,1007.96
2022-10-23T10:39:42.236Z,1007.90
2022-10-23T10:40:42.246Z,1007.86
2022-10-23T10:41:42.253Z,1007.82
2022-10-23T10:42:42.195Z,1007.80
2022-10-23T10:43:42.198Z,1007.81
2022-10-23T10:44:42.171Z,1007.84
2022-10-23T10:45:42.158Z,1007.78
2022-10-23T10:46:42.179Z,1007.79
2022-10-23T10:47:42.406Z,1007.79
2022-10-23T10:48:42.118Z,1007.78
2022-10-23T10:49:42.111Z,1007.73
2022-10-23T10:50:42.100Z,1007.75
2022-10-23T10:51:42.079Z,1007.77
2022-10-23T10:52:45.416Z,1007.76
2022-10-23T10:53:43.080Z,1007.70
2022-10-23T10:54:42.041Z,1007.68
2022-10-23T10:55:42.045Z,1007.64
2022-10-23T10:56:42.026Z,1007.60
2022-10-23T10:57:42.417Z,1007.58
2022-10-23T10:58:42.014Z,1007.54
2022-10-23T10:59:42.932Z,1007.62
2022-10-23T11:00:42.074Z,1007.61
2022-10-23T11:01:42.055Z,1007.53
2022-10-23T11:02:41.944Z,1007.57
2022-10-23T11:03:41.934Z,1007.52
2022-10-23T11:04:41.961Z,1007.54
2022-10-23T11:05:42.750Z,1007.46
2022-10-23T11:06:41.887Z,1007.38
2022-10-23T11:07:42.126Z,1007.35
2022-10-23T11:08:56.322Z,1007.30
2022-10-23T11:09:43.138Z,1007.26
2022-10-23T11:10:41.827Z,1007.21
2022-10-23T11:11:41.818Z,1007.27
2022-10-23T11:12:41.808Z,1007.28
2022-10-23T11:13:41.799Z,1007.23
2022-10-23T11:14:42.464Z,1007.26
2022-10-23T11:15:41.845Z,1007.29
2022-10-23T11:16:41.761Z,1007.24
2022-10-23T11:17:42.147Z,1007.21
2022-10-23T11:18:41.724Z,1007.20
2022-10-23T11:19:41.731Z,1007.19
2022-10-23T11:20:41.708Z,1007.20
2022-10-23T11:21:41.722Z,1007.24
2022-10-23T11:22:41.920Z,1007.25
2022-10-23T11:23:41.955Z,1007.21
2022-10-23T11:24:43.146Z,1007.21
2022-10-23T11:25:41.645Z,1007.23
2022-10-23T11:26:41.624Z,1007.19
2022-10-23T11:27:42.121Z,1007.17
2022-10-23T11:28:41.594Z,1007.11
2022-10-23T11:29:41.609Z,1007.16
2022-10-23T11:30:41.576Z,1007.04
2022-10-23T11:31:41.566Z,1006.99
2022-10-23T11:32:41.539Z,1006.96
2022-10-23T11:33:43.960Z,1006.91
2022-10-23T11:34:41.518Z,1006.84
2022-10-23T11:35:41.528Z,1006.88
2022-10-23T11:36:41.488Z,1006.82
2022-10-23T11:37:41.735Z,1006.79
2022-10-23T11:38:42.018Z,1006.75
2022-10-23T11:39:41.551Z,1006.69
2022-10-23T11:40:41.481Z,1006.69
2022-10-23T11:41:41.430Z,1006.67
2022-10-23T11:42:41.776Z,1006.62
2022-10-23T11:43:41.400Z,1006.60
2022-10-23T11:44:41.402Z,1006.54
2022-10-23T11:45:41.502Z,1006.59
2022-10-23T11:46:41.364Z,1006.49
2022-10-23T11:47:41.612Z,1006.56
2022-10-23T11:48:41.331Z,1006.53
2022-10-23T11:49:41.342Z,1006.53
2022-10-23T11:50:41.317Z,1006.51
2022-10-23T11:51:41.333Z,1006.51
2022-10-23T11:52:50.740Z,1006.47
2022-10-23T11:53:42.264Z,1006.44
2022-10-23T11:54:42.066Z,1006.46
2022-10-23T11:55:41.246Z,1006.44
2022-10-23T11:56:41.229Z,1006.43
2022-10-23T11:57:41.240Z,1006.38
2022-10-23T11:58:41.209Z,1006.38
2022-10-23T11:59:41.198Z,1006.32
2022-10-23T12:00:41.179Z,1006.26
2022-10-23T12:01:41.205Z,1006.28
2022-10-23T12:02:41.599Z,1006.20
2022-10-23T12:03:41.252Z,1006.25
2022-10-23T12:04:41.133Z,1006.17
2022-10-23T12:05:41.113Z,1006.17
2022-10-23T12:06:41.098Z,1006.10
2022-10-23T12:07:41.211Z,1006.06
2022-10-23T12:08:41.084Z,1006.07
2022-10-23T12:09:41.093Z,1006.02
2022-10-23T12:10:41.045Z,1006.00
2022-10-23T12:11:41.056Z,1006.00
2022-10-23T12:12:41.060Z,1005.91